createdAt,value
2018-06-18T00:00:37.366Z,19.33
2018-06-18T00:01:37.369Z,19.19
2018-06-18T00:02:37.374Z,19.19
2018-06-18T00:03:37.380Z,19.26
2018-06-18T00:04:37.379Z,19.22
2018-06-18T00:05:37.381Z,19.19
2018-06-18T00:06:37.384Z,19.22
2018-06-18T00:07:37.390Z,19.14
2018-06-18T00:08:37.388Z,19.22
2018-06-18T00:09:37.394Z,19.02
2018-06-18T00:10:37.393Z,19.11
2018-06-18T00:11:37.397Z,19.04
2018-06-18T00:12:37.398Z,19.08
2018-06-18T00:13:37.400Z,19.11
2018-06-18T00:14:37.402Z,19.12
2018-06-18T00:15:37.422Z,19.09
2018-06-18T00:16:37.407Z,19.14
2018-06-18T00:17:37.410Z,19.12
2018-06-18T00:18:37.411Z,19.09
2018-06-18T00:19:37.418Z,19.12
2018-06-18T00:20:37.415Z,19.14
2018-06-18T00:21:37.418Z,19.12
2018-06-18T00:22:37.422Z,19.11
2018-06-18T00:23:37.424Z,19.12
2018-06-18T00:24:37.425Z,19.08
2018-06-18T00:25:37.431Z,19.11
2018-06-18T00:26:37.430Z,19.12
2018-06-18T00:27:37.444Z,19.09
2018-06-18T00:28:37.434Z,19.11
2018-06-18T00:29:37.437Z,19.12
2018-06-18T00:30:37.440Z,19.11
2018-06-18T00:31:37.441Z,19.09
2018-06-18T00:32:37.443Z,19.09
2018-06-18T00:33:37.446Z,19.09
2018-06-18T00:34:37.449Z,19.12
2018-06-18T00:35:37.452Z,19.12
2018-06-18T00:36:37.453Z,19.08
2018-06-18T00:37:37.456Z,19.07
2018-06-18T00:38:37.460Z,19.02
2018-06-18T00:39:37.463Z,19.04
2018-06-18T00:40:37.463Z,19.00
2018-06-18T00:41:37.464Z,19.00
2018-06-18T00:42:37.468Z,19.00
2018-06-18T00:43:37.472Z,19.07
2018-06-18T00:44:37.471Z,19.08
2018-06-18T00:45:37.475Z,19.12
2018-06-18T00:46:37.476Z,19.09
2018-06-18T00:47:37.478Z,19.14
2018-06-18T00:48:37.482Z,19.15
2018-06-18T00:49:37.483Z,18.98
2018-06-18T00:50:37.485Z,19.11
2018-06-18T00:51:37.492Z,19.11
2018-06-18T00:52:37.491Z,19.15
2018-06-18T00:53:37.492Z,19.09
2018-06-18T00:54:37.496Z,19.07
2018-06-18T00:55:37.497Z,19.18
2018-06-18T00:56:37.502Z,18.99
2018-06-18T00:57:37.501Z,19.21
2018-06-18T00:58:37.504Z,19.14
2018-06-18T00:59:37.505Z,19.09
2018-06-18T01:00:37.508Z,19.11
2018-06-18T01:01:37.510Z,19.11
2018-06-18T01:02:37.512Z,19.11
2018-06-18T01:03:37.517Z,19.08
2018-06-18T01:04:37.517Z,19.09
2018-06-18T01:05:37.520Z,19.09
2018-06-18T01:06:37.523Z,19.14
2018-06-18T01:07:37.528Z,19.15
2018-06-18T01:08:37.525Z,19.12
2018-06-18T01:09:37.528Z,19.14
2018-06-18T01:10:37.530Z,19.14
2018-06-18T01:11:37.534Z,19.08
2018-06-18T01:12:37.539Z,19.12
2018-06-18T01:13:37.537Z,19.09
2018-06-18T01:14:37.540Z,19.14
2018-06-18T01:15:37.543Z,19.11
2018-06-18T01:16:37.545Z,19.14
2018-06-18T01:17:37.545Z,19.00
2018-06-18T01:18:37.549Z,19.14
2018-06-18T01:19:37.551Z,19.22
2018-06-18T01:20:37.556Z,19.09
2018-06-18T01:21:37.561Z,19.21
2018-06-18T01:22:37.565Z,19.18
2018-06-18T01:23:37.561Z,19.18
2018-06-18T01:24:37.563Z,19.19
2018-06-18T01:25:37.565Z,19.18
2018-06-18T01:26:37.567Z,19.18
2018-06-18T01:27:37.570Z,19.24
2018-06-18T01:28:37.571Z,19.21
2018-06-18T01:29:37.578Z,19.16
2018-06-18T01:30:37.580Z,19.21
2018-06-18T01:31:37.585Z,19.21
2018-06-18T01:32:37.581Z,19.18
2018-06-18T01:33:37.584Z,19.22
2018-06-18T01:34:37.588Z,19.19
2018-06-18T01:35:37.589Z,19.21
2018-06-18T01:36:37.603Z,19.19
2018-06-18T01:37:37.602Z,19.24
2018-06-18T01:38:37.597Z,19.19
2018-06-18T01:39:37.606Z,19.21
2018-06-18T01:40:37.600Z,19.29
2018-06-18T01:41:37.603Z,19.15
2018-06-18T01:42:37.604Z,19.19
2018-06-18T01:43:37.608Z,19.29
2018-06-18T01:44:37.609Z,19.19
2018-06-18T01:45:37.611Z,19.21
2018-06-18T01:46:37.614Z,19.31
2018-06-18T01:47:37.629Z,19.30
2018-06-18T01:48:37.618Z,19.30
2018-06-18T01:49:37.624Z,19.29
2018-06-18T01:50:37.623Z,19.19
2018-06-18T01:51:37.628Z,19.19
2018-06-18T01:52:39.198Z,19.18
2018-06-18T01:53:37.631Z,19.22
2018-06-18T01:54:37.634Z,19.14
2018-06-18T01:55:37.634Z,19.18
2018-06-18T01:56:37.638Z,19.27
2018-06-18T01:57:37.641Z,19.19
2018-06-18T01:58:37.643Z,19.22
2018-06-18T01:59:37.646Z,19.14
2018-06-18T02:00:37.647Z,19.18
2018-06-18T02:01:37.649Z,19.22
2018-06-18T02:02:37.652Z,19.21
2018-06-18T02:03:37.655Z,19.19
2018-06-18T02:04:37.656Z,19.18
2018-06-18T02:05:37.659Z,19.21
2018-06-18T02:06:37.661Z,19.12
2018-06-18T02:07:37.664Z,19.18
2018-06-18T02:08:37.672Z,19.19
2018-06-18T02:09:37.670Z,19.16
2018-06-18T02:10:37.671Z,19.16
2018-06-18T02:11:37.674Z,19.27
2018-06-18T02:12:37.674Z,19.29
2018-06-18T02:13:37.678Z,19.26
2018-06-18T02:14:37.684Z,19.24
2018-06-18T02:15:37.683Z,19.15
2018-06-18T02:16:37.688Z,19.22
2018-06-18T02:17:37.687Z,19.26
2018-06-18T02:18:37.696Z,19.24
2018-06-18T02:19:37.693Z,19.19
2018-06-18T02:20:37.693Z,19.26
2018-06-18T02:21:37.699Z,19.21
2018-06-18T02:22:37.700Z,19.19
2018-06-18T02:23:37.701Z,19.19
2018-06-18T02:24:37.703Z,19.21
2018-06-18T02:25:37.705Z,19.16
2018-06-18T02:26:37.707Z,19.19
2018-06-18T02:27:37.710Z,19.18
2018-06-18T02:28:37.712Z,19.14
2018-06-18T02:29:37.716Z,19.12
2018-06-18T02:30:37.718Z,19.15
2018-06-18T02:31:37.722Z,19.11
2018-06-18T02:32:37.723Z,19.08
2018-06-18T02:33:37.723Z,19.08
2018-06-18T02:34:37.730Z,19.08
2018-06-18T02:35:37.732Z,19.04
2018-06-18T02:36:37.733Z,18.96
2018-06-18T02:37:37.731Z,18.96
2018-06-18T02:38:37.736Z,18.93
2018-06-18T02:39:37.737Z,18.90
2018-06-18T02:40:37.738Z,18.95
2018-06-18T02:41:37.743Z,19.07
2018-06-18T02:42:37.744Z,18.99
2018-06-18T02:43:37.747Z,18.90
2018-06-18T02:44:37.755Z,18.90
2018-06-18T02:45:37.753Z,18.92
2018-06-18T02:46:37.755Z,18.93
2018-06-18T02:47:37.754Z,18.95
2018-06-18T02:48:37.757Z,18.95
2018-06-18T02:49:37.759Z,18.93
2018-06-18T02:50:37.769Z,18.95
2018-06-18T02:51:37.764Z,18.84
2018-06-18T02:52:37.763Z,18.78
2018-06-18T02:53:37.769Z,18.75
2018-06-18T02:54:37.770Z,18.81
2018-06-18T02:55:37.771Z,18.84
2018-06-18T02:56:37.772Z,18.77
2018-06-18T02:57:37.775Z,18.75
2018-06-18T02:58:37.779Z,18.78
2018-06-18T02:59:37.780Z,18.78
2018-06-18T03:00:37.783Z,18.78
2018-06-18T03:01:37.788Z,18.90
2018-06-18T03:02:37.787Z,18.81
2018-06-18T03:03:37.789Z,18.78
2018-06-18T03:04:37.793Z,18.80
2018-06-18T03:05:37.791Z,18.77
2018-06-18T03:06:37.795Z,18.74
2018-06-18T03:07:37.799Z,18.74
2018-06-18T03:08:37.797Z,18.80
2018-06-18T03:09:37.816Z,18.73
2018-06-18T03:10:37.802Z,18.74
2018-06-18T03:11:37.807Z,18.77
2018-06-18T03:12:37.807Z,18.70
2018-06-18T03:13:37.808Z,18.68
2018-06-18T03:14:37.809Z,18.73
2018-06-18T03:15:37.814Z,18.71
2018-06-18T03:16:37.813Z,18.78
2018-06-18T03:17:37.815Z,18.70
2018-06-18T03:18:37.817Z,18.75
2018-06-18T03:19:37.821Z,18.70
2018-06-18T03:20:37.825Z,18.70
2018-06-18T03:21:37.822Z,18.70
2018-06-18T03:22:37.833Z,18.68
2018-06-18T03:23:37.828Z,18.68
2018-06-18T03:24:37.830Z,18.65
2018-06-18T03:25:37.839Z,18.58
2018-06-18T03:26:37.833Z,18.58
2018-06-18T03:27:37.835Z,18.56
2018-06-18T03:28:37.836Z,18.59
2018-06-18T03:29:37.841Z,18.49
2018-06-18T03:30:37.843Z,18.56
2018-06-18T03:31:37.844Z,18.59
2018-06-18T03:32:37.844Z,18.60
2018-06-18T03:33:37.846Z,18.60
2018-06-18T03:34:37.849Z,18.60
2018-06-18T03:35:37.851Z,18.58
2018-06-18T03:36:37.852Z,18.58
2018-06-18T03:37:37.873Z,18.59
2018-06-18T03:38:37.856Z,18.59
2018-06-18T03:39:37.859Z,18.60
2018-06-18T03:40:37.859Z,18.58
2018-06-18T03:41:37.862Z,18.60
2018-06-18T03:42:37.864Z,18.75
2018-06-18T03:43:37.869Z,18.68
2018-06-18T03:44:37.868Z,18.66
2018-06-18T03:45:37.875Z,18.70
2018-06-18T03:46:37.872Z,18.74
2018-06-18T03:47:37.880Z,18.75
2018-06-18T03:48:37.882Z,18.78
2018-06-18T03:49:37.880Z,18.81
2018-06-18T03:50:37.888Z,18.80
2018-06-18T03:51:37.884Z,18.83
2018-06-18T03:52:37.884Z,18.89
2018-06-18T03:53:37.886Z,18.93
2018-06-18T03:54:37.890Z,18.88
2018-06-18T03:55:37.890Z,18.92
2018-06-18T03:56:37.892Z,18.96
2018-06-18T03:57:37.896Z,18.89
2018-06-18T03:58:37.900Z,18.93
2018-06-18T03:59:37.899Z,18.92
2018-06-18T04:00:37.900Z,18.95
2018-06-18T04:01:37.902Z,18.93
2018-06-18T04:02:37.906Z,19.00
2018-06-18T04:03:37.907Z,19.02
2018-06-18T04:04:37.909Z,19.08
2018-06-18T04:05:37.988Z,19.04
2018-06-18T04:06:37.914Z,19.02
2018-06-18T04:07:37.917Z,18.96
2018-06-18T04:08:37.917Z,19.02
2018-06-18T04:09:37.956Z,19.08
2018-06-18T04:10:37.926Z,19.07
2018-06-18T04:11:37.925Z,19.00
2018-06-18T04:12:37.930Z,18.93
2018-06-18T04:13:37.929Z,18.92
2018-06-18T04:14:37.932Z,18.99
2018-06-18T04:15:37.939Z,18.96
2018-06-18T04:16:37.936Z,18.89
2018-06-18T04:17:37.959Z,18.95
2018-06-18T04:18:37.941Z,18.95
2018-06-18T04:19:37.941Z,18.95
2018-06-18T04:20:37.946Z,18.96
2018-06-18T04:21:37.945Z,18.93
2018-06-18T04:22:37.948Z,18.84
2018-06-18T04:23:37.953Z,18.89
2018-06-18T04:24:37.978Z,18.86
2018-06-18T04:25:37.958Z,18.88
2018-06-18T04:26:37.957Z,18.86
2018-06-18T04:27:37.958Z,18.93
2018-06-18T04:28:37.961Z,18.93
2018-06-18T04:29:37.963Z,18.90
2018-06-18T04:30:38.011Z,18.88
2018-06-18T04:31:37.970Z,18.96
2018-06-18T04:32:37.969Z,18.89
2018-06-18T04:33:37.974Z,18.90
2018-06-18T04:34:37.979Z,18.92
2018-06-18T04:35:37.977Z,18.90
2018-06-18T04:36:37.978Z,18.92
2018-06-18T04:37:38.063Z,18.92
2018-06-18T04:38:37.983Z,18.89
2018-06-18T04:39:37.985Z,18.89
2018-06-18T04:40:37.988Z,18.92
2018-06-18T04:41:37.989Z,18.89
2018-06-18T04:42:37.993Z,18.86
2018-06-18T04:43:37.992Z,18.90
2018-06-18T04:44:38.042Z,18.95
2018-06-18T04:45:37.997Z,18.96
2018-06-18T04:46:38.006Z,18.99
2018-06-18T04:47:38.006Z,18.96
2018-06-18T04:48:38.006Z,19.11
2018-06-18T04:49:38.005Z,19.14
2018-06-18T04:50:38.007Z,19.14
2018-06-18T04:51:38.010Z,19.14
2018-06-18T04:52:38.013Z,19.14
2018-06-18T04:53:38.013Z,19.14
2018-06-18T04:54:38.017Z,19.16
2018-06-18T04:55:38.017Z,19.14
2018-06-18T04:56:38.048Z,19.12
2018-06-18T04:57:38.022Z,19.12
2018-06-18T04:58:38.023Z,19.08
2018-06-18T04:59:38.027Z,19.09
2018-06-18T05:00:38.029Z,19.11
2018-06-18T05:01:38.032Z,19.08
2018-06-18T05:02:38.032Z,19.08
2018-06-18T05:03:38.034Z,18.99
2018-06-18T05:04:38.037Z,18.96
2018-06-18T05:05:38.038Z,18.92
2018-06-18T05:06:38.045Z,18.89
2018-06-18T05:07:38.071Z,18.89
2018-06-18T05:08:38.046Z,18.88
2018-06-18T05:09:38.047Z,18.89
2018-06-18T05:10:38.050Z,18.81
2018-06-18T05:11:38.052Z,18.74
2018-06-18T05:12:38.053Z,18.80
2018-06-18T05:13:38.058Z,18.78
2018-06-18T05:14:38.058Z,18.75
2018-06-18T05:15:38.059Z,18.81
2018-06-18T05:16:38.061Z,18.74
2018-06-18T05:17:38.064Z,18.74
2018-06-18T05:18:38.066Z,18.74
2018-06-18T05:19:38.067Z,18.71
2018-06-18T05:20:38.094Z,18.71
2018-06-18T05:21:38.072Z,18.75
2018-06-18T05:22:38.076Z,18.74
2018-06-18T05:23:38.077Z,18.78
2018-06-18T05:24:38.076Z,18.90
2018-06-18T05:25:38.081Z,18.89
2018-06-18T05:26:38.086Z,18.80
2018-06-18T05:27:38.084Z,18.81
2018-06-18T05:28:38.085Z,18.92
2018-06-18T05:29:38.088Z,18.78
2018-06-18T05:30:38.090Z,18.89
2018-06-18T05:31:38.091Z,18.92
2018-06-18T05:32:38.093Z,18.83
2018-06-18T05:33:38.095Z,18.83
2018-06-18T05:34:38.099Z,18.86
2018-06-18T05:35:38.115Z,18.92
2018-06-18T05:36:38.109Z,18.99
2018-06-18T05:37:38.103Z,18.95
2018-06-18T05:38:38.106Z,19.12
2018-06-18T05:39:38.111Z,19.09
2018-06-18T05:40:38.111Z,19.11
2018-06-18T05:41:38.167Z,19.11
2018-06-18T05:42:38.116Z,19.11
2018-06-18T05:43:38.115Z,19.14
2018-06-18T05:44:38.117Z,19.14
2018-06-18T05:45:38.120Z,19.18
2018-06-18T05:46:38.125Z,19.16
2018-06-18T05:47:38.124Z,19.18
2018-06-18T05:48:38.127Z,19.21
2018-06-18T05:49:38.128Z,19.18
2018-06-18T05:50:38.140Z,19.31
2018-06-18T05:51:38.131Z,19.36
2018-06-18T05:52:38.135Z,19.40
2018-06-18T05:53:38.136Z,19.36
2018-06-18T05:54:38.140Z,19.41
2018-06-18T05:55:38.140Z,19.48
2018-06-18T05:56:38.144Z,19.56
2018-06-18T05:57:38.159Z,19.58
2018-06-18T05:58:38.154Z,19.64
2018-06-18T05:59:38.149Z,19.63
2018-06-18T06:00:38.151Z,19.67
2018-06-18T06:01:38.154Z,19.67
2018-06-18T06:02:38.156Z,19.71
2018-06-18T06:03:38.157Z,19.67
2018-06-18T06:04:38.160Z,19.69
2018-06-18T06:05:38.164Z,19.67
2018-06-18T06:06:38.166Z,19.56
2018-06-18T06:07:38.170Z,19.55
2018-06-18T06:08:38.170Z,19.54
2018-06-18T06:09:38.197Z,19.58
2018-06-18T06:10:38.175Z,19.59
2018-06-18T06:11:39.265Z,19.59
2018-06-18T06:12:38.180Z,19.63
2018-06-18T06:13:38.187Z,19.63
2018-06-18T06:14:38.192Z,19.59
2018-06-18T06:15:38.191Z,19.70
2018-06-18T06:16:38.190Z,20.10
2018-06-18T06:17:38.233Z,20.52
2018-06-18T06:18:38.213Z,20.90
2018-06-18T06:19:38.200Z,21.12
2018-06-18T06:20:38.199Z,21.20
2018-06-18T06:21:38.204Z,21.06
2018-06-18T06:22:38.207Z,21.17
2018-06-18T06:23:38.212Z,21.22
2018-06-18T06:24:38.211Z,21.30
2018-06-18T06:25:38.215Z,21.27
2018-06-18T06:26:38.219Z,21.17
2018-06-18T06:27:38.224Z,21.07
2018-06-18T06:28:38.227Z,21.05
2018-06-18T06:29:38.277Z,21.00
2018-06-18T06:30:38.234Z,21.00
2018-06-18T06:31:38.241Z,21.07
2018-06-18T06:32:38.236Z,20.97
2018-06-18T06:33:38.260Z,21.07
2018-06-18T06:34:38.244Z,21.03
2018-06-18T06:35:38.248Z,21.06
2018-06-18T06:36:38.254Z,21.00
2018-06-18T06:37:38.257Z,21.06
2018-06-18T06:38:38.259Z,21.00
2018-06-18T06:39:38.262Z,20.84
2018-06-18T06:40:38.266Z,20.85
2018-06-18T06:41:38.267Z,20.90
2018-06-18T06:42:38.269Z,20.93
2018-06-18T06:43:38.276Z,20.85
2018-06-18T06:44:38.819Z,20.75
2018-06-18T06:45:38.329Z,20.75
2018-06-18T06:46:38.437Z,20.69
2018-06-18T06:47:38.288Z,20.63
2018-06-18T06:48:38.290Z,20.60
2018-06-18T06:49:38.292Z,20.52
2018-06-18T06:50:38.297Z,20.62
2018-06-18T06:51:38.305Z,20.69
2018-06-18T06:52:38.302Z,20.74
2018-06-18T06:53:38.310Z,20.74
2018-06-18T06:54:38.308Z,20.88
2018-06-18T06:55:38.313Z,20.96
2018-06-18T06:56:38.315Z,20.97
2018-06-18T06:57:38.319Z,21.05
2018-06-18T06:58:38.325Z,21.27
2018-06-18T06:59:38.326Z,21.20
2018-06-18T07:00:38.346Z,21.30
2018-06-18T07:01:38.334Z,21.36
2018-06-18T07:02:38.337Z,21.35
2018-06-18T07:03:38.386Z,21.50
2018-06-18T07:04:38.347Z,21.61
2018-06-18T07:05:38.345Z,21.61
2018-06-18T07:06:38.349Z,21.67
2018-06-18T07:07:38.353Z,21.75
2018-06-18T07:08:38.356Z,21.72
2018-06-18T07:09:38.359Z,21.83
2018-06-18T07:10:38.366Z,21.88
2018-06-18T07:11:38.368Z,21.95
2018-06-18T07:12:38.370Z,21.99
2018-06-18T07:13:38.527Z,21.98
2018-06-18T07:14:38.380Z,22.17
2018-06-18T07:15:38.382Z,22.20
2018-06-18T07:16:38.389Z,22.25
2018-06-18T07:17:38.389Z,22.18
2018-06-18T07:18:38.393Z,22.17
2018-06-18T07:19:38.395Z,22.22
2018-06-18T07:20:38.400Z,22.28
2018-06-18T07:21:38.405Z,22.23
2018-06-18T07:22:38.476Z,22.29
2018-06-18T07:23:38.435Z,22.35
2018-06-18T07:24:38.431Z,22.36
2018-06-18T07:25:38.418Z,22.47
2018-06-18T07:26:38.423Z,22.50
2018-06-18T07:27:38.428Z,22.50
2018-06-18T07:28:38.433Z,22.53
2018-06-18T07:29:39.094Z,22.60
2018-06-18T07:30:39.930Z,22.55
2018-06-18T07:31:38.542Z,22.51
2018-06-18T07:32:39.085Z,22.60
2018-06-18T07:33:38.453Z,22.54
2018-06-18T07:34:38.458Z,22.60
2018-06-18T07:35:38.461Z,22.80
2018-06-18T07:36:38.463Z,22.88
2018-06-18T07:37:38.468Z,22.88
2018-06-18T07:38:38.472Z,22.91
2018-06-18T07:39:38.487Z,22.83
2018-06-18T07:40:38.480Z,22.84
2018-06-18T07:41:38.484Z,22.98
2018-06-18T07:42:38.662Z,22.93
2018-06-18T07:43:38.492Z,22.94
2018-06-18T07:44:38.505Z,22.96
2018-06-18T07:45:38.520Z,23.02
2018-06-18T07:46:38.520Z,22.98
2018-06-18T07:47:38.512Z,23.00
2018-06-18T07:48:38.514Z,23.06
2018-06-18T07:49:38.521Z,23.10
2018-06-18T07:50:38.523Z,23.00
2018-06-18T07:51:38.594Z,23.08
2018-06-18T07:52:38.530Z,22.98
2018-06-18T07:53:38.537Z,23.05
2018-06-18T07:54:38.556Z,23.05
2018-06-18T07:55:38.547Z,23.18
2018-06-18T07:56:38.549Z,23.15
2018-06-18T07:57:38.565Z,23.12
2018-06-18T07:58:38.558Z,23.09
2018-06-18T07:59:38.572Z,23.24
2018-06-18T08:00:38.566Z,23.24
2018-06-18T08:01:38.574Z,23.28
2018-06-18T08:02:38.577Z,23.20
2018-06-18T08:03:38.625Z,23.21
2018-06-18T08:04:38.586Z,23.28
2018-06-18T08:05:38.660Z,23.31
2018-06-18T08:06:38.609Z,23.23
2018-06-18T08:07:38.599Z,23.27
2018-06-18T08:08:38.603Z,23.37
2018-06-18T08:09:38.665Z,23.40
2018-06-18T08:10:38.614Z,23.47
2018-06-18T08:11:38.617Z,23.51
2018-06-18T08:12:38.623Z,23.66
2018-06-18T08:13:38.626Z,23.65
2018-06-18T08:14:38.631Z,23.73
2018-06-18T08:15:38.635Z,23.84
2018-06-18T08:16:38.641Z,23.91
2018-06-18T08:17:38.643Z,23.99
2018-06-18T08:18:38.648Z,23.98
2018-06-18T08:19:38.653Z,24.03
2018-06-18T08:20:38.660Z,24.17
2018-06-18T08:21:38.661Z,24.11
2018-06-18T08:22:38.672Z,24.20
2018-06-18T08:23:38.671Z,24.16
2018-06-18T08:24:38.677Z,24.24
2018-06-18T08:25:38.705Z,24.14
2018-06-18T08:26:38.687Z,24.18
2018-06-18T08:27:38.691Z,24.39
2018-06-18T08:28:38.695Z,24.39
2018-06-18T08:29:38.700Z,24.36
2018-06-18T08:30:38.707Z,24.40
2018-06-18T08:31:38.710Z,24.38
2018-06-18T08:32:38.713Z,24.50
2018-06-18T08:33:38.720Z,24.61
2018-06-18T08:34:38.736Z,24.60
2018-06-18T08:35:38.739Z,24.47
2018-06-18T08:36:38.742Z,24.33
2018-06-18T08:37:38.740Z,24.30
2018-06-18T08:38:38.744Z,24.36
2018-06-18T08:39:38.775Z,24.57
2018-06-18T08:40:38.754Z,24.60
2018-06-18T08:41:38.761Z,24.58
2018-06-18T08:42:38.766Z,24.68
2018-06-18T08:43:38.772Z,24.65
2018-06-18T08:44:38.778Z,24.84
2018-06-18T08:45:38.781Z,24.91
2018-06-18T08:46:38.788Z,25.16
2018-06-18T08:47:38.791Z,25.31
2018-06-18T08:48:38.803Z,25.44
2018-06-18T08:49:38.803Z,25.55
2018-06-18T08:50:38.820Z,25.38
2018-06-18T08:51:38.814Z,25.29
2018-06-18T08:52:38.819Z,25.32
2018-06-18T08:53:38.823Z,25.18
2018-06-18T08:54:38.830Z,24.99
2018-06-18T08:55:38.835Z,24.96
2018-06-18T08:56:38.841Z,24.98
2018-06-18T08:57:38.846Z,25.16
2018-06-18T08:58:38.852Z,25.26
2018-06-18T08:59:38.857Z,25.40
2018-06-18T09:00:38.862Z,25.36
2018-06-18T09:01:38.867Z,25.38
2018-06-18T09:02:38.879Z,25.50
2018-06-18T09:03:38.884Z,25.66
2018-06-18T09:04:38.884Z,25.83
2018-06-18T09:05:38.890Z,26.18
2018-06-18T09:06:38.896Z,26.55
2018-06-18T09:07:38.901Z,26.59
2018-06-18T09:08:38.911Z,26.45
2018-06-18T09:09:38.912Z,26.47
2018-06-18T09:10:38.919Z,26.22
2018-06-18T09:11:38.926Z,25.91
2018-06-18T09:12:38.931Z,25.60
2018-06-18T09:13:38.936Z,25.53
2018-06-18T09:14:38.942Z,25.41
2018-06-18T09:15:38.975Z,25.41
2018-06-18T09:16:38.954Z,25.41
2018-06-18T09:17:39.006Z,25.35
2018-06-18T09:18:38.994Z,25.32
2018-06-18T09:19:38.974Z,25.28
2018-06-18T09:20:38.981Z,25.26
2018-06-18T09:21:38.990Z,25.54
2018-06-18T09:22:38.999Z,26.73
2018-06-18T09:23:39.018Z,27.59
2018-06-18T09:24:39.002Z,27.68
2018-06-18T09:25:39.009Z,28.12
2018-06-18T09:26:39.013Z,28.23
2018-06-18T09:27:39.019Z,28.12
2018-06-18T09:28:39.036Z,28.22
2018-06-18T09:29:39.031Z,29.08
2018-06-18T09:30:39.039Z,28.93
2018-06-18T09:31:39.063Z,28.60
2018-06-18T09:32:39.117Z,28.59
2018-06-18T09:33:39.060Z,28.59
2018-06-18T09:34:39.213Z,28.63
2018-06-18T09:35:39.096Z,28.57
2018-06-18T09:36:39.079Z,28.81
2018-06-18T09:37:39.085Z,29.22
2018-06-18T09:38:39.092Z,29.49
2018-06-18T09:39:39.100Z,29.66
2018-06-18T09:40:39.108Z,30.10
2018-06-18T09:41:39.113Z,30.28
2018-06-18T09:42:39.122Z,30.05
2018-06-18T09:43:39.129Z,29.86
2018-06-18T09:44:39.165Z,30.30
2018-06-18T09:45:39.150Z,30.15
2018-06-18T09:46:39.152Z,29.78
2018-06-18T09:47:39.164Z,29.53
2018-06-18T09:48:39.172Z,29.20
2018-06-18T09:49:39.175Z,29.04
2018-06-18T09:50:39.183Z,28.81
2018-06-18T09:51:39.192Z,28.54
2018-06-18T09:52:39.197Z,28.44
2018-06-18T09:53:39.205Z,28.23
2018-06-18T09:54:39.218Z,28.33
2018-06-18T09:55:39.278Z,28.37
2018-06-18T09:56:39.231Z,28.66
2018-06-18T09:57:39.235Z,28.67
2018-06-18T09:58:39.246Z,28.52
2018-06-18T09:59:39.252Z,29.01
2018-06-18T10:00:39.257Z,29.75
2018-06-18T10:01:39.444Z,30.00
2018-06-18T10:02:39.273Z,29.95
2018-06-18T10:03:39.280Z,30.08
2018-06-18T10:04:39.287Z,30.25
2018-06-18T10:05:39.300Z,30.31
2018-06-18T10:06:39.304Z,30.00
2018-06-18T10:07:39.311Z,30.27
2018-06-18T10:08:39.376Z,30.70
2018-06-18T10:09:39.346Z,30.44
2018-06-18T10:10:39.395Z,31.03
2018-06-18T10:11:39.346Z,31.76
2018-06-18T10:12:39.359Z,32.45
2018-06-18T10:13:39.404Z,33.28
2018-06-18T10:14:39.373Z,33.95
2018-06-18T10:15:39.379Z,34.50
2018-06-18T10:16:39.422Z,35.12
2018-06-18T10:17:39.401Z,35.55
2018-06-18T10:18:39.410Z,35.68
2018-06-18T10:19:39.418Z,35.95
2018-06-18T10:20:39.426Z,35.95
2018-06-18T10:21:39.438Z,36.30
2018-06-18T10:22:39.449Z,36.51
2018-06-18T10:23:39.460Z,36.31
2018-06-18T10:24:39.476Z,35.58
2018-06-18T10:25:39.482Z,34.95
2018-06-18T10:26:39.496Z,34.13
2018-06-18T10:27:39.505Z,33.11
2018-06-18T10:28:39.518Z,32.49
2018-06-18T10:29:39.526Z,32.40
2018-06-18T10:30:39.539Z,32.63
2018-06-18T10:31:39.553Z,33.45
2018-06-18T10:32:39.571Z,34.24
2018-06-18T10:33:39.570Z,34.73
2018-06-18T10:34:39.581Z,35.44
2018-06-18T10:35:39.610Z,35.95
2018-06-18T10:36:39.601Z,36.33
2018-06-18T10:37:39.614Z,35.92
2018-06-18T10:38:39.628Z,35.42
2018-06-18T10:39:39.638Z,35.71
2018-06-18T10:40:39.646Z,35.08
2018-06-18T10:41:39.659Z,34.96
2018-06-18T10:42:39.677Z,35.46
2018-06-18T10:43:39.692Z,35.15
2018-06-18T10:44:39.905Z,35.53
2018-06-18T10:45:39.705Z,36.16
2018-06-18T10:46:39.723Z,36.36
2018-06-18T10:47:39.733Z,35.89
2018-06-18T10:48:39.741Z,35.53
2018-06-18T10:49:39.800Z,35.18
2018-06-18T10:50:39.766Z,34.92
2018-06-18T10:51:39.778Z,35.10
2018-06-18T10:52:39.789Z,34.95
2018-06-18T10:53:39.807Z,34.52
2018-06-18T10:54:39.814Z,34.16
2018-06-18T10:55:39.825Z,33.47
2018-06-18T10:56:39.838Z,32.51
2018-06-18T10:57:39.851Z,31.97
2018-06-18T10:58:39.860Z,32.14
2018-06-18T10:59:39.875Z,33.05
2018-06-18T11:00:39.886Z,33.79
2018-06-18T11:01:39.898Z,34.54
2018-06-18T11:02:39.907Z,35.46
2018-06-18T11:03:39.950Z,36.42
2018-06-18T11:04:39.930Z,36.98
2018-06-18T11:05:39.942Z,37.14
2018-06-18T11:06:39.993Z,36.96
2018-06-18T11:07:39.969Z,36.21
2018-06-18T11:08:39.985Z,35.49
2018-06-18T11:09:39.999Z,35.11
2018-06-18T11:10:40.006Z,35.58
2018-06-18T11:11:40.025Z,36.35
2018-06-18T11:12:40.029Z,37.08
2018-06-18T11:13:40.060Z,36.91
2018-06-18T11:14:40.059Z,37.21
2018-06-18T11:15:40.071Z,37.72
2018-06-18T11:16:40.283Z,38.12
2018-06-18T11:17:40.103Z,38.33
2018-06-18T11:18:40.107Z,38.68
2018-06-18T11:19:40.143Z,38.74
2018-06-18T11:20:40.145Z,38.89
2018-06-18T11:21:40.152Z,39.21
2018-06-18T11:22:40.165Z,39.46
2018-06-18T11:23:40.187Z,39.59
2018-06-18T11:24:40.232Z,39.85
2018-06-18T11:25:40.210Z,40.28
2018-06-18T11:26:40.247Z,40.24
2018-06-18T11:27:40.246Z,40.24
2018-06-18T11:28:40.295Z,40.05
2018-06-18T11:29:40.272Z,40.00
2018-06-18T11:30:40.288Z,39.94
2018-06-18T11:31:40.307Z,39.33
2018-06-18T11:32:40.320Z,39.41
2018-06-18T11:33:40.338Z,39.52
2018-06-18T11:34:40.362Z,39.90
2018-06-18T11:35:40.377Z,40.43
2018-06-18T11:36:40.417Z,40.50
2018-06-18T11:37:40.470Z,40.69
2018-06-18T11:38:40.435Z,40.24
2018-06-18T11:39:40.467Z,39.87
2018-06-18T11:40:40.466Z,39.94
2018-06-18T11:41:40.538Z,39.87
2018-06-18T11:42:40.487Z,40.14
2018-06-18T11:43:40.537Z,40.30
2018-06-18T11:44:40.521Z,40.75
2018-06-18T11:45:40.539Z,41.03
2018-06-18T11:46:40.555Z,41.24
2018-06-18T11:47:40.581Z,40.38
2018-06-18T11:48:40.591Z,39.75
2018-06-18T11:49:40.608Z,39.26
2018-06-18T11:50:40.638Z,39.34
2018-06-18T11:51:40.765Z,39.58
2018-06-18T11:52:41.132Z,39.99
2018-06-18T11:53:40.684Z,39.81
2018-06-18T11:54:40.691Z,39.36
2018-06-18T11:55:41.426Z,38.80
2018-06-18T11:56:40.719Z,38.61
2018-06-18T11:57:40.760Z,38.55
2018-06-18T11:58:41.014Z,38.28
2018-06-18T11:59:40.938Z,38.21
2018-06-18T12:00:40.785Z,38.31
2018-06-18T12:01:40.893Z,38.20
2018-06-18T12:02:40.817Z,38.20
2018-06-18T12:03:40.837Z,38.30
2018-06-18T12:04:40.849Z,38.49
2018-06-18T12:05:40.888Z,38.83
2018-06-18T12:06:40.880Z,38.96
2018-06-18T12:07:40.900Z,39.21
2018-06-18T12:08:40.911Z,39.55
2018-06-18T12:09:40.940Z,39.48
2018-06-18T12:10:40.943Z,38.49
2018-06-18T12:11:40.963Z,38.05
2018-06-18T12:12:40.978Z,38.26
2018-06-18T12:13:40.993Z,38.73
2018-06-18T12:14:41.137Z,39.07
2018-06-18T12:15:41.024Z,39.37
2018-06-18T12:16:41.089Z,39.51
2018-06-18T12:17:41.057Z,39.55
2018-06-18T12:18:41.070Z,39.53
2018-06-18T12:19:41.091Z,39.68
2018-06-18T12:20:41.102Z,39.75
2018-06-18T12:21:41.118Z,40.06
2018-06-18T12:22:41.286Z,40.31
2018-06-18T12:23:41.151Z,39.40
2018-06-18T12:24:41.173Z,38.64
2018-06-18T12:25:41.181Z,38.49
2018-06-18T12:26:41.197Z,37.82
2018-06-18T12:27:42.216Z,37.44
2018-06-18T12:28:41.226Z,36.98
2018-06-18T12:29:41.243Z,37.01
2018-06-18T12:30:41.265Z,37.51
2018-06-18T12:31:41.274Z,37.90
2018-06-18T12:32:41.287Z,37.68
2018-06-18T12:33:41.303Z,37.70
2018-06-18T12:34:41.316Z,38.27
2018-06-18T12:35:41.327Z,38.57
2018-06-18T12:36:41.354Z,38.79
2018-06-18T12:37:41.498Z,38.76
2018-06-18T12:38:41.372Z,38.57
2018-06-18T12:39:41.384Z,39.11
2018-06-18T12:40:41.572Z,39.30
2018-06-18T12:41:41.416Z,39.60
2018-06-18T12:42:41.431Z,39.31
2018-06-18T12:43:41.444Z,38.64
2018-06-18T12:44:41.457Z,38.86
2018-06-18T12:45:41.478Z,39.12
2018-06-18T12:46:41.566Z,39.06
2018-06-18T12:47:41.563Z,38.54
2018-06-18T12:48:41.522Z,38.02
2018-06-18T12:49:41.530Z,37.15
2018-06-18T12:50:41.545Z,37.01
2018-06-18T12:51:41.591Z,36.77
2018-06-18T12:52:41.615Z,36.98